sensor_id;sensor_type;location;lat;lon;timestamp;P1;durP1;ratioP1;P2;durP2;ratioP2
20080;SDS011;10200;49.232;9.222;2023-04-15T00:01:22;7.87;;;3.43;;
20080;SDS011;10200;49.232;9.222;2023-04-15T00:03:49;4.83;;;2.77;;
20080;SDS011;10200;49.232;9.222;2023-04-15T00:06:16;6.33;;;3.63;;
20080;SDS011;10200;49.232;9.222;2023-04-15T00:08:43;6.83;;;3.50;;
20080;SDS011;10200;49.232;9.222;2023-04-15T00:11:09;7.90;;;3.50;;
20080;SDS011;10200;49.232;9.222;2023-04-15T00:13:35;7.33;;;3.33;;
20080;SDS011;10200;49.232;9.222;2023-04-15T00:16:00;5.63;;;3.40;;
20080;SDS011;10200;49.232;9.222;2023-04-15T00:18:26;5.40;;;3.33;;
20080;SDS011;10200;49.232;9.222;2023-04-15T00:20:53;5.80;;;3.23;;
20080;SDS011;10200;49.232;9.222;2023-04-15T00:23:19;8.60;;;3.67;;
20080;SDS011;10200;49.232;9.222;2023-04-15T00:25:45;6.77;;;3.33;;
20080;SDS011;10200;49.232;9.222;2023-04-15T00:28:10;4.10;;;3.03;;
20080;SDS011;10200;49.232;9.222;2023-04-15T00:30:36;8.13;;;3.93;;
20080;SDS011;10200;49.232;9.222;2023-04-15T00:33:02;4.70;;;3.40;;
20080;SDS011;10200;49.232;9.222;2023-04-15T00:35:28;10.23;;;5.37;;
20080;SDS011;10200;49.232;9.222;2023-04-15T00:37:56;8.80;;;4.40;;
20080;SDS011;10200;49.232;9.222;2023-04-15T00:40:22;9.63;;;4.70;;
20080;SDS011;10200;49.232;9.222;2023-04-15T00:42:48;9.17;;;4.73;;
20080;SDS011;10200;49.232;9.222;2023-04-15T00:45:14;6.13;;;4.33;;
20080;SDS011;10200;49.232;9.222;2023-04-15T00:47:40;5.43;;;3.50;;
20080;SDS011;10200;49.232;9.222;2023-04-15T00:50:07;8.00;;;3.40;;
20080;SDS011;10200;49.232;9.222;2023-04-15T00:52:33;7.30;;;2.80;;
20080;SDS011;10200;49.232;9.222;2023-04-15T00:54:59;4.10;;;3.10;;
20080;SDS011;10200;49.232;9.222;2023-04-15T00:57:24;5.77;;;2.83;;
20080;SDS011;10200;49.232;9.222;2023-04-15T00:59:51;5.47;;;3.50;;
20080;SDS011;10200;49.232;9.222;2023-04-15T01:02:17;5.13;;;3.27;;
20080;SDS011;10200;49.232;9.222;2023-04-15T01:04:43;3.83;;;3.23;;
20080;SDS011;10200;49.232;9.222;2023-04-15T01:07:09;7.93;;;3.63;;
20080;SDS011;10200;49.232;9.222;2023-04-15T01:09:34;3.63;;;2.90;;
20080;SDS011;10200;49.232;9.222;2023-04-15T01:12:00;4.63;;;3.07;;
20080;SDS011;10200;49.232;9.222;2023-04-15T01:14:26;3.47;;;2.70;;
20080;SDS011;10200;49.232;9.222;2023-04-15T01:16:52;7.20;;;3.87;;
20080;SDS011;10200;49.232;9.222;2023-04-15T01:19:18;9.17;;;3.57;;
20080;SDS011;10200;49.232;9.222;2023-04-15T01:21:44;3.90;;;3.03;;
20080;SDS011;10200;49.232;9.222;2023-04-15T01:24:10;5.30;;;2.90;;
20080;SDS011;10200;49.232;9.222;2023-04-15T01:26:37;7.43;;;3.60;;
20080;SDS011;10200;49.232;9.222;2023-04-15T01:29:03;4.50;;;3.07;;
20080;SDS011;10200;49.232;9.222;2023-04-15T01:31:28;3.97;;;3.00;;
20080;SDS011;10200;49.232;9.222;2023-04-15T01:33:54;4.50;;;2.97;;
20080;SDS011;10200;49.232;9.222;2023-04-15T01:36:20;8.63;;;3.63;;
20080;SDS011;10200;49.232;9.222;2023-04-15T01:38:46;5.50;;;3.10;;
20080;SDS011;10200;49.232;9.222;2023-04-15T01:41:12;8.57;;;3.40;;
20080;SDS011;10200;49.232;9.222;2023-04-15T01:43:38;4.43;;;3.20;;
20080;SDS011;10200;49.232;9.222;2023-04-15T01:46:03;5.67;;;3.57;;
20080;SDS011;10200;49.232;9.222;2023-04-15T01:48:30;7.13;;;3.67;;
20080;SDS011;10200;49.232;9.222;2023-04-15T01:50:56;4.90;;;3.47;;
20080;SDS011;10200;49.232;9.222;2023-04-15T01:53:23;4.90;;;2.90;;
20080;SDS011;10200;49.232;9.222;2023-04-15T01:55:49;5.60;;;3.50;;
20080;SDS011;10200;49.232;9.222;2023-04-15T01:58:16;4.07;;;2.87;;
20080;SDS011;10200;49.232;9.222;2023-04-15T02:00:42;3.83;;;2.97;;
20080;SDS011;10200;49.232;9.222;2023-04-15T02:03:08;4.63;;;3.50;;
20080;SDS011;10200;49.232;9.222;2023-04-15T02:05:34;5.13;;;3.67;;
20080;SDS011;10200;49.232;9.222;2023-04-15T02:07:59;4.63;;;3.80;;
20080;SDS011;10200;49.232;9.222;2023-04-15T02:10:25;4.17;;;3.07;;
20080;SDS011;10200;49.232;9.222;2023-04-15T02:12:51;3.67;;;3.03;;
20080;SDS011;10200;49.232;9.222;2023-04-15T02:15:18;3.80;;;2.73;;
20080;SDS011;10200;49.232;9.222;2023-04-15T02:17:44;4.17;;;3.10;;
20080;SDS011;10200;49.232;9.222;2023-04-15T02:20:14;3.83;;;3.33;;
20080;SDS011;10200;49.232;9.222;2023-04-15T02:22:40;4.20;;;3.17;;
20080;SDS011;10200;49.232;9.222;2023-04-15T02:25:06;4.80;;;3.10;;
20080;SDS011;10200;49.232;9.222;2023-04-15T02:27:33;5.43;;;3.70;;
20080;SDS011;10200;49.232;9.222;2023-04-15T02:29:59;3.87;;;3.03;;
20080;SDS011;10200;49.232;9.222;2023-04-15T02:32:25;12.50;;;3.70;;
20080;SDS011;10200;49.232;9.222;2023-04-15T02:34:51;3.97;;;2.77;;
20080;SDS011;10200;49.232;9.222;2023-04-15T02:37:17;4.17;;;3.37;;
20080;SDS011;10200;49.232;9.222;2023-04-15T02:39:44;7.50;;;3.40;;
20080;SDS011;10200;49.232;9.222;2023-04-15T02:42:10;5.77;;;3.80;;
20080;SDS011;10200;49.232;9.222;2023-04-15T02:44:37;6.57;;;3.27;;
20080;SDS011;10200;49.232;9.222;2023-04-15T02:47:02;6.63;;;3.10;;
20080;SDS011;10200;49.232;9.222;2023-04-15T02:49:30;4.20;;;3.30;;
20080;SDS011;10200;49.232;9.222;2023-04-15T02:51:56;5.17;;;3.30;;
20080;SDS011;10200;49.232;9.222;2023-04-15T02:54:22;5.57;;;4.00;;
20080;SDS011;10200;49.232;9.222;2023-04-15T02:56:48;8.90;;;3.90;;
20080;SDS011;10200;49.232;9.222;2023-04-15T02:59:14;3.83;;;3.17;;
20080;SDS011;10200;49.232;9.222;2023-04-15T03:01:40;5.90;;;3.93;;
20080;SDS011;10200;49.232;9.222;2023-04-15T03:04:06;4.47;;;3.00;;
20080;SDS011;10200;49.232;9.222;2023-04-15T03:06:32;5.03;;;3.23;;
20080;SDS011;10200;49.232;9.222;2023-04-15T03:08:58;8.10;;;3.40;;
20080;SDS011;10200;49.232;9.222;2023-04-15T03:11:24;4.17;;;2.90;;
20080;SDS011;10200;49.232;9.222;2023-04-15T03:13:51;5.03;;;2.90;;
20080;SDS011;10200;49.232;9.222;2023-04-15T03:16:17;3.80;;;3.13;;
20080;SDS011;10200;49.232;9.222;2023-04-15T03:18:42;5.97;;;3.13;;
20080;SDS011;10200;49.232;9.222;2023-04-15T03:21:08;7.93;;;3.23;;
20080;SDS011;10200;49.232;9.222;2023-04-15T03:23:33;5.93;;;3.33;;
20080;SDS011;10200;49.232;9.222;2023-04-15T03:26:02;4.33;;;3.13;;
20080;SDS011;10200;49.232;9.222;2023-04-15T03:28:29;6.70;;;3.63;;
20080;SDS011;10200;49.232;9.222;2023-04-15T03:30:56;4.17;;;3.63;;
20080;SDS011;10200;49.232;9.222;2023-04-15T03:33:22;5.03;;;3.00;;
20080;SDS011;10200;49.232;9.222;2023-04-15T03:35:48;5.53;;;3.60;;
20080;SDS011;10200;49.232;9.222;2023-04-15T03:38:15;7.07;;;3.67;;
20080;SDS011;10200;49.232;9.222;2023-04-15T03:40:40;4.87;;;3.60;;
20080;SDS011;10200;49.232;9.222;2023-04-15T03:43:06;4.27;;;3.23;;
20080;SDS011;10200;49.232;9.222;2023-04-15T03:45:32;4.40;;;3.20;;
20080;SDS011;10200;49.232;9.222;2023-04-15T03:47:57;5.43;;;3.33;;
20080;SDS011;10200;49.232;9.222;2023-04-15T03:50:23;10.87;;;3.87;;
20080;SDS011;10200;49.232;9.222;2023-04-15T03:52:48;5.40;;;3.43;;
20080;SDS011;10200;49.232;9.222;2023-04-15T03:55:14;4.30;;;2.90;;
20080;SDS011;10200;49.232;9.222;2023-04-15T03:57:40;5.50;;;4.33;;
20080;SDS011;10200;49.232;9.222;2023-04-15T04:00:06;4.93;;;3.00;;
20080;SDS011;10200;49.232;9.222;2023-04-15T04:02:35;3.97;;;3.13;;
20080;SDS011;10200;49.232;9.222;2023-04-15T04:05:01;4.77;;;3.30;;
20080;SDS011;10200;49.232;9.222;2023-04-15T04:07:27;5.60;;;2.90;;
20080;SDS011;10200;49.232;9.222;2023-04-15T04:09:53;5.27;;;3.13;;
20080;SDS011;10200;49.232;9.222;2023-04-15T04:12:18;3.60;;;3.07;;
20080;SDS011;10200;49.232;9.222;2023-04-15T04:14:44;4.63;;;3.80;;
20080;SDS011;10200;49.232;9.222;2023-04-15T04:17:10;3.90;;;3.00;;
20080;SDS011;10200;49.232;9.222;2023-04-15T04:19:35;3.97;;;3.30;;
20080;SDS011;10200;49.232;9.222;2023-04-15T04:22:01;7.37;;;3.57;;
20080;SDS011;10200;49.232;9.222;2023-04-15T04:24:26;5.07;;;3.53;;
20080;SDS011;10200;49.232;9.222;2023-04-15T04:26:52;4.57;;;3.33;;
20080;SDS011;10200;49.232;9.222;2023-04-15T04:29:18;5.53;;;3.30;;
20080;SDS011;10200;49.232;9.222;2023-04-15T04:31:43;5.60;;;3.83;;
20080;SDS011;10200;49.232;9.222;2023-04-15T04:34:09;4.83;;;3.43;;
20080;SDS011;10200;49.232;9.222;2023-04-15T04:36:35;4.53;;;3.63;;
20080;SDS011;10200;49.232;9.222;2023-04-15T04:39:01;5.23;;;3.80;;
20080;SDS011;10200;49.232;9.222;2023-04-15T04:41:26;7.87;;;5.63;;
20080;SDS011;10200;49.232;9.222;2023-04-15T04:43:52;5.90;;;4.27;;
20080;SDS011;10200;49.232;9.222;2023-04-15T04:46:17;4.70;;;3.53;;
20080;SDS011;10200;49.232;9.222;2023-04-15T04:48:43;4.60;;;3.77;;
20080;SDS011;10200;49.232;9.222;2023-04-15T04:51:09;4.17;;;3.60;;
20080;SDS011;10200;49.232;9.222;2023-04-15T04:53:35;4.07;;;3.37;;
20080;SDS011;10200;49.232;9.222;2023-04-15T04:56:01;5.27;;;3.10;;
20080;SDS011;10200;49.232;9.222;2023-04-15T04:58:27;6.53;;;3.00;;
20080;SDS011;10200;49.232;9.222;2023-04-15T05:00:53;5.53;;;3.80;;
20080;SDS011;10200;49.232;9.222;2023-04-15T05:03:19;5.43;;;2.93;;
20080;SDS011;10200;49.232;9.222;2023-04-15T05:05:44;4.23;;;3.10;;
20080;SDS011;10200;49.232;9.222;2023-04-15T05:08:10;8.53;;;3.73;;
20080;SDS011;10200;49.232;9.222;2023-04-15T05:10:36;7.80;;;3.80;;
20080;SDS011;10200;49.232;9.222;2023-04-15T05:13:01;5.03;;;3.30;;
20080;SDS011;10200;49.232;9.222;2023-04-15T05:15:27;4.07;;;3.30;;
20080;SDS011;10200;49.232;9.222;2023-04-15T05:17:53;7.63;;;4.33;;
20080;SDS011;10200;49.232;9.222;2023-04-15T05:20:19;6.13;;;3.23;;
20080;SDS011;10200;49.232;9.222;2023-04-15T05:22:44;5.53;;;3.80;;
20080;SDS011;10200;49.232;9.222;2023-04-15T05:25:10;8.27;;;3.40;;
20080;SDS011;10200;49.232;9.222;2023-04-15T05:27:36;4.30;;;3.33;;
20080;SDS011;10200;49.232;9.222;2023-04-15T05:30:01;7.43;;;3.90;;
20080;SDS011;10200;49.232;9.222;2023-04-15T05:32:27;3.53;;;2.87;;
20080;SDS011;10200;49.232;9.222;2023-04-15T05:34:53;6.43;;;3.67;;
20080;SDS011;10200;49.232;9.222;2023-04-15T05:37:18;6.43;;;3.80;;
20080;SDS011;10200;49.232;9.222;2023-04-15T05:39:47;7.80;;;4.27;;
20080;SDS011;10200;49.232;9.222;2023-04-15T05:42:13;8.27;;;4.50;;
20080;SDS011;10200;49.232;9.222;2023-04-15T05:44:38;5.50;;;4.07;;
20080;SDS011;10200;49.232;9.222;2023-04-15T05:47:04;5.00;;;3.63;;
20080;SDS011;10200;49.232;9.222;2023-04-15T05:49:31;7.27;;;4.40;;
20080;SDS011;10200;49.232;9.222;2023-04-15T05:51:56;6.27;;;4.30;;
20080;SDS011;10200;49.232;9.222;2023-04-15T05:54:22;6.27;;;3.80;;
20080;SDS011;10200;49.232;9.222;2023-04-15T05:56:48;4.17;;;3.50;;
20080;SDS011;10200;49.232;9.222;2023-04-15T05:59:13;4.23;;;3.37;;
20080;SDS011;10200;49.232;9.222;2023-04-15T06:01:39;5.07;;;3.40;;
20080;SDS011;10200;49.232;9.222;2023-04-15T06:04:04;4.43;;;4.03;;
20080;SDS011;10200;49.232;9.222;2023-04-15T06:06:30;4.97;;;4.00;;
20080;SDS011;10200;49.232;9.222;2023-04-15T06:08:56;4.10;;;3.40;;
20080;SDS011;10200;49.232;9.222;2023-04-15T06:11:22;7.63;;;3.97;;
20080;SDS011;10200;49.232;9.222;2023-04-15T06:13:48;6.23;;;4.33;;
20080;SDS011;10200;49.232;9.222;2023-04-15T06:16:13;19.07;;;14.00;;
20080;SDS011;10200;49.232;9.222;2023-04-15T06:18:39;9.67;;;8.70;;
20080;SDS011;10200;49.232;9.222;2023-04-15T06:21:05;7.40;;;5.40;;
20080;SDS011;10200;49.232;9.222;2023-04-15T06:23:32;7.07;;;5.47;;
20080;SDS011;10200;49.232;9.222;2023-04-15T06:26:00;6.03;;;5.40;;
20080;SDS011;10200;49.232;9.222;2023-04-15T06:28:26;6.80;;;6.03;;
20080;SDS011;10200;49.232;9.222;2023-04-15T06:30:52;8.87;;;6.40;;
20080;SDS011;10200;49.232;9.222;2023-04-15T06:33:18;8.40;;;5.53;;
20080;SDS011;10200;49.232;9.222;2023-04-15T06:35:44;7.43;;;5.47;;
20080;SDS011;10200;49.232;9.222;2023-04-15T06:38:09;6.50;;;4.50;;
20080;SDS011;10200;49.232;9.222;2023-04-15T06:40:35;5.33;;;4.10;;
20080;SDS011;10200;49.232;9.222;2023-04-15T06:43:00;7.27;;;4.03;;
20080;SDS011;10200;49.232;9.222;2023-04-15T06:45:26;5.67;;;3.70;;
20080;SDS011;10200;49.232;9.222;2023-04-15T06:47:52;5.33;;;3.97;;
20080;SDS011;10200;49.232;9.222;2023-04-15T06:50:17;6.27;;;4.63;;
20080;SDS011;10200;49.232;9.222;2023-04-15T06:52:43;6.63;;;3.90;;
20080;SDS011;10200;49.232;9.222;2023-04-15T06:55:08;5.30;;;4.50;;
20080;SDS011;10200;49.232;9.222;2023-04-15T06:57:34;5.80;;;4.20;;
20080;SDS011;10200;49.232;9.222;2023-04-15T07:00:00;7.50;;;4.70;;
20080;SDS011;10200;49.232;9.222;2023-04-15T07:02:25;5.33;;;3.90;;
20080;SDS011;10200;49.232;9.222;2023-04-15T07:04:51;9.93;;;4.33;;
20080;SDS011;10200;49.232;9.222;2023-04-15T07:07:16;6.50;;;4.37;;
20080;SDS011;10200;49.232;9.222;2023-04-15T07:09:42;8.60;;;4.60;;
20080;SDS011;10200;49.232;9.222;2023-04-15T07:12:08;4.80;;;4.07;;
20080;SDS011;10200;49.232;9.222;2023-04-15T07:14:34;5.30;;;4.20;;
20080;SDS011;10200;49.232;9.222;2023-04-15T07:17:00;6.60;;;4.20;;
20080;SDS011;10200;49.232;9.222;2023-04-15T07:19:26;6.63;;;4.23;;
20080;SDS011;10200;49.232;9.222;2023-04-15T07:21:51;4.60;;;4.10;;
20080;SDS011;10200;49.232;9.222;2023-04-15T07:24:17;10.87;;;4.80;;
20080;SDS011;10200;49.232;9.222;2023-04-15T07:26:44;5.53;;;4.20;;
20080;SDS011;10200;49.232;9.222;2023-04-15T07:29:10;6.27;;;4.30;;
20080;SDS011;10200;49.232;9.222;2023-04-15T07:31:36;8.60;;;4.67;;
20080;SDS011;10200;49.232;9.222;2023-04-15T07:34:02;8.17;;;4.93;;
20080;SDS011;10200;49.232;9.222;2023-04-15T07:36:28;7.23;;;5.03;;
20080;SDS011;10200;49.232;9.222;2023-04-15T07:38:54;6.33;;;4.47;;
20080;SDS011;10200;49.232;9.222;2023-04-15T07:41:20;7.87;;;3.90;;
20080;SDS011;10200;49.232;9.222;2023-04-15T07:43:45;5.97;;;3.97;;
20080;SDS011;10200;49.232;9.222;2023-04-15T07:46:12;5.77;;;4.23;;
20080;SDS011;10200;49.232;9.222;2023-04-15T07:48:38;6.40;;;3.90;;
20080;SDS011;10200;49.232;9.222;2023-04-15T07:51:04;5.43;;;3.97;;
20080;SDS011;10200;49.232;9.222;2023-04-15T07:53:30;6.53;;;4.00;;
20080;SDS011;10200;49.232;9.222;2023-04-15T07:55:57;6.30;;;4.20;;
20080;SDS011;10200;49.232;9.222;2023-04-15T07:58:22;7.33;;;4.27;;
20080;SDS011;10200;49.232;9.222;2023-04-15T08:00:48;9.03;;;4.90;;
20080;SDS011;10200;49.232;9.222;2023-04-15T08:03:14;6.90;;;4.53;;
20080;SDS011;10200;49.232;9.222;2023-04-15T08:05:40;8.07;;;4.03;;
20080;SDS011;10200;49.232;9.222;2023-04-15T08:08:05;10.97;;;4.53;;
20080;SDS011;10200;49.232;9.222;2023-04-15T08:10:31;4.97;;;3.87;;
20080;SDS011;10200;49.232;9.222;2023-04-15T08:12:57;5.03;;;4.03;;
20080;SDS011;10200;49.232;9.222;2023-04-15T08:15:22;7.17;;;4.90;;
20080;SDS011;10200;49.232;9.222;2023-04-15T08:17:48;7.43;;;4.13;;
20080;SDS011;10200;49.232;9.222;2023-04-15T08:20:13;7.20;;;4.30;;
20080;SDS011;10200;49.232;9.222;2023-04-15T08:22:39;7.60;;;4.50;;
20080;SDS011;10200;49.232;9.222;2023-04-15T08:25:05;6.67;;;3.87;;
20080;SDS011;10200;49.232;9.222;2023-04-15T08:27:31;7.47;;;4.40;;
20080;SDS011;10200;49.232;9.222;2023-04-15T08:29:57;6.50;;;4.30;;
20080;SDS011;10200;49.232;9.222;2023-04-15T08:32:23;4.97;;;3.97;;
20080;SDS011;10200;49.232;9.222;2023-04-15T08:34:50;8.37;;;5.07;;
20080;SDS011;10200;49.232;9.222;2023-04-15T08:37:16;9.67;;;4.30;;
20080;SDS011;10200;49.232;9.222;2023-04-15T08:39:41;6.23;;;4.97;;
20080;SDS011;10200;49.232;9.222;2023-04-15T08:42:15;8.33;;;4.30;;
20080;SDS011;10200;49.232;9.222;2023-04-15T08:44:41;10.83;;;4.93;;
20080;SDS011;10200;49.232;9.222;2023-04-15T08:47:08;5.40;;;4.57;;
20080;SDS011;10200;49.232;9.222;2023-04-15T08:49:38;9.93;;;5.17;;
20080;SDS011;10200;49.232;9.222;2023-04-15T08:52:05;8.33;;;4.50;;
20080;SDS011;10200;49.232;9.222;2023-04-15T08:54:31;7.20;;;4.70;;
20080;SDS011;10200;49.232;9.222;2023-04-15T08:56:58;6.73;;;4.90;;
20080;SDS011;10200;49.232;9.222;2023-04-15T08:59:24;4.60;;;4.03;;
20080;SDS011;10200;49.232;9.222;2023-04-15T09:01:50;5.23;;;4.53;;
20080;SDS011;10200;49.232;9.222;2023-04-15T09:04:16;9.43;;;5.17;;
20080;SDS011;10200;49.232;9.222;2023-04-15T09:06:42;6.83;;;4.00;;
20080;SDS011;10200;49.232;9.222;2023-04-15T09:09:08;5.87;;;4.00;;
20080;SDS011;10200;49.232;9.222;2023-04-15T09:11:36;7.80;;;3.57;;
20080;SDS011;10200;49.232;9.222;2023-04-15T09:14:01;7.03;;;4.10;;
20080;SDS011;10200;49.232;9.222;2023-04-15T09:16:27;7.23;;;4.67;;
20080;SDS011;10200;49.232;9.222;2023-04-15T09:18:53;7.27;;;4.53;;
20080;SDS011;10200;49.232;9.222;2023-04-15T09:21:19;8.03;;;4.57;;
20080;SDS011;10200;49.232;9.222;2023-04-15T09:23:59;8.37;;;4.10;;
20080;SDS011;10200;49.232;9.222;2023-04-15T09:26:32;6.60;;;4.10;;
20080;SDS011;10200;49.232;9.222;2023-04-15T09:29:08;7.10;;;4.60;;
20080;SDS011;10200;49.232;9.222;2023-04-15T09:31:37;6.67;;;4.37;;
20080;SDS011;10200;49.232;9.222;2023-04-15T09:34:03;5.60;;;4.33;;
20080;SDS011;10200;49.232;9.222;2023-04-15T09:36:51;7.97;;;3.97;;
20080;SDS011;10200;49.232;9.222;2023-04-15T09:39:18;8.37;;;4.10;;
20080;SDS011;10200;49.232;9.222;2023-04-15T09:41:43;8.47;;;4.20;;
20080;SDS011;10200;49.232;9.222;2023-04-15T09:44:25;6.67;;;4.10;;
20080;SDS011;10200;49.232;9.222;2023-04-15T09:46:51;5.47;;;4.03;;
20080;SDS011;10200;49.232;9.222;2023-04-15T09:49:16;5.83;;;3.77;;
20080;SDS011;10200;49.232;9.222;2023-04-15T09:51:42;7.30;;;4.10;;
20080;SDS011;10200;49.232;9.222;2023-04-15T09:54:08;4.13;;;2.93;;
20080;SDS011;10200;49.232;9.222;2023-04-15T09:56:37;3.20;;;2.90;;
20080;SDS011;10200;49.232;9.222;2023-04-15T09:59:09;3.47;;;2.17;;
20080;SDS011;10200;49.232;9.222;2023-04-15T10:01:34;4.63;;;2.50;;
20080;SDS011;10200;49.232;9.222;2023-04-15T10:04:02;2.97;;;2.63;;
20080;SDS011;10200;49.232;9.222;2023-04-15T10:06:28;3.13;;;2.53;;
20080;SDS011;10200;49.232;9.222;2023-04-15T10:08:54;6.27;;;2.60;;
20080;SDS011;10200;49.232;9.222;2023-04-15T10:11:23;5.23;;;2.70;;
20080;SDS011;10200;49.232;9.222;2023-04-15T10:13:52;4.20;;;2.50;;
20080;SDS011;10200;49.232;9.222;2023-04-15T10:16:20;2.87;;;2.17;;
20080;SDS011;10200;49.232;9.222;2023-04-15T10:18:50;3.10;;;2.50;;
20080;SDS011;10200;49.232;9.222;2023-04-15T10:21:19;3.03;;;2.40;;
20080;SDS011;10200;49.232;9.222;2023-04-15T10:23:46;4.10;;;2.80;;
20080;SDS011;10200;49.232;9.222;2023-04-15T10:26:12;5.13;;;2.80;;
20080;SDS011;10200;49.232;9.222;2023-04-15T10:28:39;4.27;;;2.73;;
20080;SDS011;10200;49.232;9.222;2023-04-15T10:31:05;4.60;;;2.50;;
20080;SDS011;10200;49.232;9.222;2023-04-15T10:33:31;4.50;;;2.63;;
20080;SDS011;10200;49.232;9.222;2023-04-15T10:35:59;3.03;;;2.17;;
20080;SDS011;10200;49.232;9.222;2023-04-15T10:43:49;3.80;;;2.70;;
20080;SDS011;10200;49.232;9.222;2023-04-15T10:46:33;3.37;;;2.40;;
20080;SDS011;10200;49.232;9.222;2023-04-15T10:49:13;3.90;;;2.80;;
20080;SDS011;10200;49.232;9.222;2023-04-15T10:52:01;4.20;;;2.00;;
20080;SDS011;10200;49.232;9.222;2023-04-15T10:57:14;4.53;;;1.40;;
20080;SDS011;10200;49.232;9.222;2023-04-15T10:59:58;4.53;;;1.50;;
20080;SDS011;10200;49.232;9.222;2023-04-15T11:05:18;3.40;;;1.60;;
20080;SDS011;10200;49.232;9.222;2023-04-15T11:12:46;2.57;;;1.37;;
20080;SDS011;10200;49.232;9.222;2023-04-15T11:15:32;1.40;;;1.20;;
20080;SDS011;10200;49.232;9.222;2023-04-15T11:20:53;1.47;;;1.00;;
20080;SDS011;10200;49.232;9.222;2023-04-15T11:23:40;2.70;;;1.10;;
20080;SDS011;10200;49.232;9.222;2023-04-15T11:26:12;3.40;;;1.10;;
20080;SDS011;10200;49.232;9.222;2023-04-15T11:28:39;1.90;;;0.83;;
20080;SDS011;10200;49.232;9.222;2023-04-15T11:31:07;4.30;;;1.17;;
20080;SDS011;10200;49.232;9.222;2023-04-15T11:33:34;2.40;;;1.00;;
20080;SDS011;10200;49.232;9.222;2023-04-15T11:36:00;1.33;;;1.17;;
20080;SDS011;10200;49.232;9.222;2023-04-15T11:38:28;1.40;;;0.90;;
20080;SDS011;10200;49.232;9.222;2023-04-15T11:40:54;3.43;;;1.10;;
20080;SDS011;10200;49.232;9.222;2023-04-15T11:43:20;1.57;;;1.00;;
20080;SDS011;10200;49.232;9.222;2023-04-15T11:48:15;1.53;;;0.90;;
20080;SDS011;10200;49.232;9.222;2023-04-15T11:50:42;2.87;;;0.90;;
20080;SDS011;10200;49.232;9.222;2023-04-15T11:53:08;3.23;;;1.00;;
20080;SDS011;10200;49.232;9.222;2023-04-15T11:58:15;2.40;;;1.00;;
20080;SDS011;10200;49.232;9.222;2023-04-15T12:00:52;0.73;;;0.60;;
20080;SDS011;10200;49.232;9.222;2023-04-15T12:11:17;1.00;;;0.60;;
20080;SDS011;10200;49.232;9.222;2023-04-15T12:13:56;0.63;;;0.57;;
20080;SDS011;10200;49.232;9.222;2023-04-15T12:16:28;2.27;;;1.00;;
20080;SDS011;10200;49.232;9.222;2023-04-15T12:18:55;1.53;;;0.67;;
20080;SDS011;10200;49.232;9.222;2023-04-15T12:21:23;0.60;;;0.60;;
20080;SDS011;10200;49.232;9.222;2023-04-15T12:23:51;1.83;;;0.90;;
20080;SDS011;10200;49.232;9.222;2023-04-15T12:29:17;0.80;;;0.80;;
20080;SDS011;10200;49.232;9.222;2023-04-15T12:31:50;2.23;;;0.77;;
20080;SDS011;10200;49.232;9.222;2023-04-15T12:34:23;1.30;;;0.80;;
20080;SDS011;10200;49.232;9.222;2023-04-15T12:37:00;1.37;;;0.80;;
20080;SDS011;10200;49.232;9.222;2023-04-15T12:39:28;2.23;;;0.80;;
20080;SDS011;10200;49.232;9.222;2023-04-15T12:41:55;0.70;;;0.63;;
20080;SDS011;10200;49.232;9.222;2023-04-15T12:44:23;0.80;;;0.80;;
20080;SDS011;10200;49.232;9.222;2023-04-15T12:46:50;1.17;;;0.80;;
20080;SDS011;10200;49.232;9.222;2023-04-15T12:49:19;1.27;;;0.80;;
20080;SDS011;10200;49.232;9.222;2023-04-15T12:51:47;0.80;;;0.77;;
20080;SDS011;10200;49.232;9.222;2023-04-15T12:54:14;1.57;;;1.07;;
20080;SDS011;10200;49.232;9.222;2023-04-15T12:56:41;4.17;;;0.97;;
20080;SDS011;10200;49.232;9.222;2023-04-15T12:59:07;1.10;;;0.90;;
20080;SDS011;10200;49.232;9.222;2023-04-15T13:01:32;1.63;;;0.80;;
20080;SDS011;10200;49.232;9.222;2023-04-15T13:03:58;1.63;;;0.70;;
20080;SDS011;10200;49.232;9.222;2023-04-15T13:06:24;4.33;;;0.87;;
20080;SDS011;10200;49.232;9.222;2023-04-15T13:08:49;1.40;;;0.83;;
20080;SDS011;10200;49.232;9.222;2023-04-15T13:11:15;0.80;;;0.73;;
20080;SDS011;10200;49.232;9.222;2023-04-15T13:13:41;0.83;;;0.83;;
20080;SDS011;10200;49.232;9.222;2023-04-15T13:16:07;2.87;;;1.70;;
20080;SDS011;10200;49.232;9.222;2023-04-15T13:18:33;1.30;;;0.90;;
20080;SDS011;10200;49.232;9.222;2023-04-15T13:20:59;0.70;;;0.70;;
20080;SDS011;10200;49.232;9.222;2023-04-15T13:23:25;2.30;;;1.00;;
20080;SDS011;10200;49.232;9.222;2023-04-15T13:25:51;1.37;;;1.10;;
20080;SDS011;10200;49.232;9.222;2023-04-15T13:28:17;2.33;;;0.90;;
20080;SDS011;10200;49.232;9.222;2023-04-15T13:30:42;1.47;;;0.77;;
20080;SDS011;10200;49.232;9.222;2023-04-15T13:33:09;1.43;;;0.70;;
20080;SDS011;10200;49.232;9.222;2023-04-15T13:35:35;2.60;;;0.80;;
20080;SDS011;10200;49.232;9.222;2023-04-15T13:38:01;1.13;;;0.70;;
20080;SDS011;10200;49.232;9.222;2023-04-15T13:40:27;1.27;;;0.90;;
20080;SDS011;10200;49.232;9.222;2023-04-15T13:42:52;1.97;;;0.90;;
20080;SDS011;10200;49.232;9.222;2023-04-15T13:45:18;1.30;;;1.00;;
20080;SDS011;10200;49.232;9.222;2023-04-15T13:47:43;2.53;;;1.43;;
20080;SDS011;10200;49.232;9.222;2023-04-15T13:50:09;1.23;;;1.00;;
20080;SDS011;10200;49.232;9.222;2023-04-15T13:52:35;2.50;;;1.00;;
20080;SDS011;10200;49.232;9.222;2023-04-15T13:55:01;4.67;;;1.10;;
20080;SDS011;10200;49.232;9.222;2023-04-15T13:57:27;0.90;;;0.87;;
20080;SDS011;10200;49.232;9.222;2023-04-15T13:59:53;1.37;;;1.00;;
20080;SDS011;10200;49.232;9.222;2023-04-15T14:02:19;1.73;;;1.07;;
20080;SDS011;10200;49.232;9.222;2023-04-15T14:04:46;1.93;;;1.10;;
20080;SDS011;10200;49.232;9.222;2023-04-15T14:07:12;1.13;;;0.97;;
20080;SDS011;10200;49.232;9.222;2023-04-15T14:09:37;1.03;;;0.80;;
20080;SDS011;10200;49.232;9.222;2023-04-15T14:12:03;1.10;;;0.90;;
20080;SDS011;10200;49.232;9.222;2023-04-15T14:14:29;0.93;;;0.80;;
20080;SDS011;10200;49.232;9.222;2023-04-15T14:16:54;1.27;;;0.80;;
20080;SDS011;10200;49.232;9.222;2023-04-15T14:19:21;0.60;;;0.60;;
20080;SDS011;10200;49.232;9.222;2023-04-15T14:21:47;3.63;;;1.10;;
20080;SDS011;10200;49.232;9.222;2023-04-15T14:24:13;1.40;;;0.90;;
20080;SDS011;10200;49.232;9.222;2023-04-15T14:26:38;1.30;;;1.00;;
20080;SDS011;10200;49.232;9.222;2023-04-15T14:29:04;1.20;;;1.10;;
20080;SDS011;10200;49.232;9.222;2023-04-15T14:31:30;1.73;;;1.03;;
20080;SDS011;10200;49.232;9.222;2023-04-15T14:33:55;1.27;;;0.90;;
20080;SDS011;10200;49.232;9.222;2023-04-15T14:36:21;2.53;;;1.17;;
20080;SDS011;10200;49.232;9.222;2023-04-15T14:38:46;2.50;;;1.20;;
20080;SDS011;10200;49.232;9.222;2023-04-15T14:41:12;1.00;;;0.90;;
20080;SDS011;10200;49.232;9.222;2023-04-15T14:43:38;2.20;;;0.87;;
20080;SDS011;10200;49.232;9.222;2023-04-15T14:46:03;1.00;;;0.90;;
20080;SDS011;10200;49.232;9.222;2023-04-15T14:48:29;1.00;;;0.90;;
20080;SDS011;10200;49.232;9.222;2023-04-15T14:50:56;0.93;;;0.83;;
20080;SDS011;10200;49.232;9.222;2023-04-15T14:53:22;1.53;;;0.90;;
20080;SDS011;10200;49.232;9.222;2023-04-15T14:55:47;0.87;;;0.87;;
20080;SDS011;10200;49.232;9.222;2023-04-15T14:58:13;1.80;;;1.17;;
20080;SDS011;10200;49.232;9.222;2023-04-15T15:00:38;2.43;;;1.40;;
20080;SDS011;10200;49.232;9.222;2023-04-15T15:03:06;1.47;;;1.23;;
20080;SDS011;10200;49.232;9.222;2023-04-15T15:05:40;1.40;;;1.30;;
20080;SDS011;10200;49.232;9.222;2023-04-15T15:08:07;1.33;;;1.20;;
20080;SDS011;10200;49.232;9.222;2023-04-15T15:10:34;1.97;;;0.90;;
20080;SDS011;10200;49.232;9.222;2023-04-15T15:13:01;1.77;;;1.30;;
20080;SDS011;10200;49.232;9.222;2023-04-15T15:15:30;1.30;;;1.10;;
20080;SDS011;10200;49.232;9.222;2023-04-15T15:17:56;2.27;;;1.47;;
20080;SDS011;10200;49.232;9.222;2023-04-15T15:20:23;1.93;;;1.60;;